Time;durP1;ratioP1;P1;durP2;ratioP2;P2;SDS_P1;SDS_P2;PMS_P1;PMS_P2;Temp;Humidity;BMP_temperature;BMP_pressure;BME280_temperature;BME280_humidity;BME280_pressure;Samples;Min_cycle;Max_cycle;Signal;HPM_P1;HPM_P2
2021/12/23 00:02:02;;;;;;;28.45;12.35;;;;;;;;;;5066813;28;20570;-78
2021/12/23 00:04:29;;;;;;;24.83;12.57;;;;;;;;;;5068142;28;20163;-79
2021/12/23 00:06:55;;;;;;;28.33;12.57;;;;;;;;;;5071810;28;20136;-79
2021/12/23 00:09:27;;;;;;;34.17;12.30;;;;;;;;;;5088641;28;20057;-79
2021/12/23 00:11:54;;;;;;;27.42;12.88;;;;;;;;;;5089893;28;20057;-79
2021/12/23 00:14:20;;;;;;;26.35;12.88;;;;;;;;;;5076729;28;20049;-79
2021/12/23 00:16:49;;;;;;;30.45;12.93;;;;;;;;;;5073250;28;20134;-79
2021/12/23 00:24:31;;;;;;;25.92;12.50;;;;;;;;;;5100418;28;20507;-79
2021/12/23 00:26:58;;;;;;;24.95;11.93;;;;;;;;;;5082845;28;20799;-78
2021/12/23 00:29:24;;;;;;;25.02;11.55;;;;;;;;;;5071823;28;20718;-79
2021/12/23 00:31:51;;;;;;;25.50;11.80;;;;;;;;;;5070067;28;20091;-79
2021/12/23 00:34:17;;;;;;;22.08;11.80;;;;;;;;;;5070539;28;20127;-78
2021/12/23 00:36:45;;;;;;;27.50;12.45;;;;;;;;;;5082379;28;20606;-79
2021/12/23 00:39:13;;;;;;;27.08;12.40;;;;;;;;;;5090452;28;20870;-79
2021/12/23 00:41:42;;;;;;;23.90;11.38;;;;;;;;;;5091585;28;20099;-79
2021/12/23 00:44:08;;;;;;;25.60;11.48;;;;;;;;;;5089744;28;20090;-78
2021/12/23 00:46:35;;;;;;;27.85;12.65;;;;;;;;;;5074205;28;20395;-79
2021/12/23 00:49:01;;;;;;;25.60;12.70;;;;;;;;;;5076037;28;20056;-79
2021/12/23 00:51:29;;;;;;;22.27;11.95;;;;;;;;;;5090162;28;20052;-79
2021/12/23 00:54:04;;;;;;;24.48;11.60;;;;;;;;;;5079222;28;20092;-79
2021/12/23 00:56:35;;;;;;;24.42;10.45;;;;;;;;;;5086640;28;20515;-79
2021/12/23 00:59:02;;;;;;;29.90;12.45;;;;;;;;;;5088916;28;20044;-79
2021/12/23 01:01:29;;;;;;;26.40;11.98;;;;;;;;;;5069594;28;20138;-79
2021/12/23 01:03:56;;;;;;;27.70;12.40;;;;;;;;;;5071001;28;20061;-79
2021/12/23 01:06:22;;;;;;;22.52;10.98;;;;;;;;;;5079165;28;20076;-79
2021/12/23 01:08:49;;;;;;;24.33;11.98;;;;;;;;;;5091273;28;20060;-79
2021/12/23 01:11:16;;;;;;;24.73;11.45;;;;;;;;;;5086465;28;20102;-79
2021/12/23 01:13:49;;;;;;;26.98;12.65;;;;;;;;;;5073701;28;20049;-80
2021/12/23 01:16:26;;;;;;;31.70;12.93;;;;;;;;;;5070946;28;20577;-79
2021/12/23 01:18:55;;;;;;;28.02;12.07;;;;;;;;;;5084398;28;20064;-79
2021/12/23 01:21:21;;;;;;;32.33;13.50;;;;;;;;;;5089141;28;20120;-79
2021/12/23 01:23:48;;;;;;;28.38;11.95;;;;;;;;;;5070147;28;20147;-79
2021/12/23 01:26:19;;;;;;;28.05;13.18;;;;;;;;;;5074148;28;20049;-79
2021/12/23 01:28:47;;;;;;;31.50;12.45;;;;;;;;;;5091079;28;20498;-79
2021/12/23 01:31:13;;;;;;;26.90;12.95;;;;;;;;;;5098230;27;20521;-78
2021/12/23 01:33:40;;;;;;;28.00;12.10;;;;;;;;;;5090601;28;20053;-79
2021/12/23 01:36:07;;;;;;;28.25;12.65;;;;;;;;;;5069519;28;20057;-79
2021/12/23 01:38:33;;;;;;;27.05;11.90;;;;;;;;;;5070891;28;20088;-79
2021/12/23 01:41:00;;;;;;;27.60;12.98;;;;;;;;;;5091580;28;20122;-78
2021/12/23 01:43:26;;;;;;;26.90;12.57;;;;;;;;;;5089967;28;20087;-79
2021/12/23 01:45:53;;;;;;;27.42;12.32;;;;;;;;;;5074486;28;20045;-78
2021/12/23 01:48:19;;;;;;;24.67;12.57;;;;;;;;;;5070565;28;20049;-79
2021/12/23 01:50:46;;;;;;;25.80;11.40;;;;;;;;;;5082897;28;20118;-79
2021/12/23 01:53:14;;;;;;;25.30;12.20;;;;;;;;;;5089031;28;20080;-79
2021/12/23 01:55:42;;;;;;;26.38;12.35;;;;;;;;;;5074877;28;20085;-79
2021/12/23 01:58:09;;;;;;;27.27;12.45;;;;;;;;;;5068888;28;20122;-79
2021/12/23 02:00:37;;;;;;;26.05;12.90;;;;;;;;;;5070815;28;20657;-78
2021/12/23 02:03:04;;;;;;;27.58;12.13;;;;;;;;;;5090952;28;20057;-79
2021/12/23 02:05:31;;;;;;;28.25;12.77;;;;;;;;;;5082340;28;20052;-78
2021/12/23 02:07:59;;;;;;;25.73;12.50;;;;;;;;;;5090382;28;20049;-79
2021/12/23 02:10:26;;;;;;;26.77;12.98;;;;;;;;;;5088361;28;20107;-79
2021/12/23 02:12:53;;;;;;;28.35;12.50;;;;;;;;;;5081612;28;20115;-79
2021/12/23 02:15:19;;;;;;;26.42;13.25;;;;;;;;;;5076148;28;20052;-79
2021/12/23 02:17:47;;;;;;;26.80;12.82;;;;;;;;;;5077981;28;20125;-79
2021/12/23 02:20:14;;;;;;;30.10;12.35;;;;;;;;;;5088634;28;20053;-79
2021/12/23 02:22:41;;;;;;;26.33;13.00;;;;;;;;;;5088635;28;20056;-78
2021/12/23 02:25:09;;;;;;;26.08;12.48;;;;;;;;;;5081265;28;20518;-79
2021/12/23 02:27:36;;;;;;;29.60;12.85;;;;;;;;;;5084733;28;20505;-78
2021/12/23 02:30:04;;;;;;;29.40;12.88;;;;;;;;;;5084931;28;20052;-78
2021/12/23 02:32:31;;;;;;;30.02;13.07;;;;;;;;;;5079439;28;20507;-79
2021/12/23 02:34:57;;;;;;;31.00;13.13;;;;;;;;;;5091649;28;20608;-79
2021/12/23 02:37:23;;;;;;;28.73;13.05;;;;;;;;;;5092285;28;20092;-79
2021/12/23 02:39:50;;;;;;;27.33;12.60;;;;;;;;;;5082520;28;20049;-79
2021/12/23 02:42:16;;;;;;;31.00;13.15;;;;;;;;;;5085859;28;20087;-78
2021/12/23 02:44:42;;;;;;;27.33;12.32;;;;;;;;;;5088308;28;20084;-78
2021/12/23 02:47:09;;;;;;;25.23;12.40;;;;;;;;;;5086573;28;20103;-78
2021/12/23 02:49:35;;;;;;;31.45;13.43;;;;;;;;;;5082994;28;20080;-79
2021/12/23 02:52:02;;;;;;;29.15;13.43;;;;;;;;;;5082962;28;20158;-78
2021/12/23 02:54:28;;;;;;;29.15;13.50;;;;;;;;;;5087976;28;20503;-78
2021/12/23 02:56:54;;;;;;;25.67;12.63;;;;;;;;;;5085743;28;20053;-79
2021/12/23 02:59:21;;;;;;;27.45;13.38;;;;;;;;;;5079035;28;20084;-78
2021/12/23 03:01:47;;;;;;;30.08;13.00;;;;;;;;;;5084700;28;20503;-79
2021/12/23 03:04:14;;;;;;;28.35;13.13;;;;;;;;;;5067993;28;20063;-78
2021/12/23 03:06:41;;;;;;;28.38;12.90;;;;;;;;;;5072683;28;20053;-78
2021/12/23 03:09:07;;;;;;;28.70;12.85;;;;;;;;;;5086601;28;20138;-79
2021/12/23 03:11:34;;;;;;;27.77;12.80;;;;;;;;;;5084568;28;20059;-79
2021/12/23 03:14:01;;;;;;;27.73;12.90;;;;;;;;;;5077138;28;20146;-79
2021/12/23 03:16:31;;;;;;;28.73;12.98;;;;;;;;;;5084588;28;20084;-79
2021/12/23 03:18:57;;;;;;;28.13;12.43;;;;;;;;;;5077995;28;20060;-79
2021/12/23 03:21:24;;;;;;;30.40;13.30;;;;;;;;;;5070133;28;20126;-79
2021/12/23 03:23:51;;;;;;;33.67;13.80;;;;;;;;;;5068569;28;20057;-79
2021/12/23 03:26:18;;;;;;;29.77;13.32;;;;;;;;;;5074236;28;20045;-79
2021/12/23 03:28:44;;;;;;;26.55;13.13;;;;;;;;;;5066816;28;20130;-79
2021/12/23 03:31:11;;;;;;;27.52;13.60;;;;;;;;;;5067273;28;20522;-79
2021/12/23 03:33:37;;;;;;;29.70;13.32;;;;;;;;;;5065767;28;20061;-79
2021/12/23 03:36:04;;;;;;;28.85;13.35;;;;;;;;;;5092768;28;20581;-79
2021/12/23 03:38:31;;;;;;;25.63;13.32;;;;;;;;;;5067881;28;20049;-79
2021/12/23 03:40:58;;;;;;;26.98;13.02;;;;;;;;;;5083089;28;20056;-79
2021/12/23 03:43:24;;;;;;;31.55;13.95;;;;;;;;;;5083014;28;20048;-79
2021/12/23 03:45:51;;;;;;;27.63;13.32;;;;;;;;;;5085574;28;20049;-79
2021/12/23 03:48:18;;;;;;;25.65;13.32;;;;;;;;;;5085390;28;20053;-79
2021/12/23 03:50:45;;;;;;;28.38;13.77;;;;;;;;;;5071046;28;20523;-79
2021/12/23 03:53:12;;;;;;;25.98;13.10;;;;;;;;;;5076725;28;20617;-79
2021/12/23 03:55:39;;;;;;;28.88;13.68;;;;;;;;;;5077558;28;20510;-79
2021/12/23 03:58:05;;;;;;;28.90;13.73;;;;;;;;;;5069511;28;20071;-79
2021/12/23 04:00:32;;;;;;;29.42;13.90;;;;;;;;;;5084910;28;20088;-79
2021/12/23 04:02:58;;;;;;;28.50;12.95;;;;;;;;;;5076525;28;20134;-79
2021/12/23 04:05:25;;;;;;;29.35;13.82;;;;;;;;;;5090496;28;20049;-78
2021/12/23 04:07:51;;;;;;;30.23;13.50;;;;;;;;;;5082910;28;20048;-79
2021/12/23 04:10:21;;;;;;;31.98;13.75;;;;;;;;;;5089658;28;20057;-79
2021/12/23 04:12:48;;;;;;;29.45;13.40;;;;;;;;;;5085244;28;20237;-79
2021/12/23 04:15:15;;;;;;;33.45;14.75;;;;;;;;;;5089957;28;20624;-79
2021/12/23 04:17:41;;;;;;;28.98;14.25;;;;;;;;;;5086120;28;20060;-78
2021/12/23 04:20:52;;;;;;;27.85;11.90;;;;;;;;;;5078126;28;20138;-79
2021/12/23 04:23:03;;;;;;;30.48;13.80;;;;;;;;;;5074010;28;20126;-79
2021/12/23 04:25:29;;;;;;;26.50;11.88;;;;;;;;;;5068968;28;20053;-79
2021/12/23 04:27:57;;;;;;;29.27;13.68;;;;;;;;;;5069670;28;20389;-79
2021/12/23 04:30:24;;;;;;;35.00;14.88;;;;;;;;;;5088616;28;20129;-79
2021/12/23 04:32:51;;;;;;;33.00;14.45;;;;;;;;;;5077967;28;20077;-79
2021/12/23 04:35:17;;;;;;;34.33;14.30;;;;;;;;;;5086963;28;20063;-80
2021/12/23 04:37:44;;;;;;;30.23;14.48;;;;;;;;;;5073955;28;20077;-79
2021/12/23 04:40:11;;;;;;;33.05;15.15;;;;;;;;;;5072001;28;20057;-79
2021/12/23 04:42:37;;;;;;;35.10;15.30;;;;;;;;;;5070396;28;20057;-79
2021/12/23 04:45:04;;;;;;;34.67;15.23;;;;;;;;;;5077274;28;20075;-79
2021/12/23 04:47:31;;;;;;;33.45;14.43;;;;;;;;;;5085993;28;20080;-80
2021/12/23 04:49:57;;;;;;;34.33;15.05;;;;;;;;;;5089652;28;20052;-79
2021/12/23 04:52:24;;;;;;;31.98;14.00;;;;;;;;;;5089087;28;20075;-79
2021/12/23 04:54:50;;;;;;;32.08;15.40;;;;;;;;;;5084842;28;20064;-79
2021/12/23 04:57:17;;;;;;;33.63;14.30;;;;;;;;;;5070172;28;20431;-79
2021/12/23 04:59:43;;;;;;;33.33;15.50;;;;;;;;;;5072550;28;20573;-79
2021/12/23 05:02:09;;;;;;;36.13;16.13;;;;;;;;;;5089425;28;20099;-79
2021/12/23 05:04:36;;;;;;;32.70;14.77;;;;;;;;;;5087212;28;20194;-79
2021/12/23 05:07:02;;;;;;;34.55;14.13;;;;;;;;;;5074836;28;20602;-79
2021/12/23 05:09:28;;;;;;;32.30;15.25;;;;;;;;;;5088436;28;20053;-79
2021/12/23 05:11:55;;;;;;;33.60;15.80;;;;;;;;;;5090359;28;20602;-79
2021/12/23 05:14:21;;;;;;;35.67;16.27;;;;;;;;;;5083290;28;20057;-79
2021/12/23 05:16:48;;;;;;;34.78;15.80;;;;;;;;;;5069822;28;20629;-79
2021/12/23 05:19:14;;;;;;;32.45;15.20;;;;;;;;;;5084879;28;20056;-79
2021/12/23 05:21:40;;;;;;;34.92;15.57;;;;;;;;;;5089931;28;20083;-79
2021/12/23 05:24:07;;;;;;;38.10;15.77;;;;;;;;;;5085700;28;20100;-79
2021/12/23 05:26:33;;;;;;;33.00;16.30;;;;;;;;;;5082449;28;20057;-79
2021/12/23 05:28:59;;;;;;;33.85;15.45;;;;;;;;;;5074283;28;20080;-79
2021/12/23 05:31:26;;;;;;;36.97;16.98;;;;;;;;;;5068966;28;20139;-79
2021/12/23 05:33:52;;;;;;;37.78;18.10;;;;;;;;;;5073060;28;20060;-79
2021/12/23 05:36:19;;;;;;;33.42;16.58;;;;;;;;;;5086473;28;20056;-79
2021/12/23 05:38:46;;;;;;;33.47;15.85;;;;;;;;;;5071449;28;20088;-79
2021/12/23 05:41:12;;;;;;;36.78;16.75;;;;;;;;;;5070096;28;20142;-79
2021/12/23 05:43:38;;;;;;;37.72;16.35;;;;;;;;;;5082390;28;20080;-79
2021/12/23 05:46:05;;;;;;;36.45;16.10;;;;;;;;;;5077335;28;20059;-79
2021/12/23 05:48:31;;;;;;;36.92;16.48;;;;;;;;;;5072456;28;20049;-79
2021/12/23 05:50:58;;;;;;;36.65;16.98;;;;;;;;;;5068708;28;20571;-79
2021/12/23 05:53:24;;;;;;;35.28;15.95;;;;;;;;;;5085816;28;20060;-79
2021/12/23 05:55:52;;;;;;;40.28;17.65;;;;;;;;;;5087754;28;20573;-79
2021/12/23 05:58:19;;;;;;;40.38;18.80;;;;;;;;;;5085332;28;20467;-79
2021/12/23 06:00:45;;;;;;;39.92;18.15;;;;;;;;;;5077687;28;20097;-80
2021/12/23 06:03:12;;;;;;;41.13;17.50;;;;;;;;;;5084008;28;20304;-79
2021/12/23 06:05:38;;;;;;;38.53;17.63;;;;;;;;;;5070981;28;20554;-80
2021/12/23 06:08:04;;;;;;;45.08;19.63;;;;;;;;;;5079355;28;20080;-79
2021/12/23 06:10:31;;;;;;;44.20;18.10;;;;;;;;;;5072156;28;20048;-79
2021/12/23 06:12:57;;;;;;;42.35;17.85;;;;;;;;;;5077833;28;20424;-81
2021/12/23 06:15:24;;;;;;;43.67;18.73;;;;;;;;;;5071603;28;20514;-80
2021/12/23 06:17:50;;;;;;;39.45;18.55;;;;;;;;;;5076453;28;20078;-80
2021/12/23 06:20:16;;;;;;;46.50;20.50;;;;;;;;;;5080417;28;20050;-79
2021/12/23 06:22:43;;;;;;;43.20;18.48;;;;;;;;;;5071266;28;20060;-80
2021/12/23 06:25:10;;;;;;;45.13;19.77;;;;;;;;;;5079666;28;20052;-80
2021/12/23 06:27:36;;;;;;;40.17;18.52;;;;;;;;;;5096464;28;20052;-79
2021/12/23 06:30:06;;;;;;;43.72;19.38;;;;;;;;;;5087341;28;20037;-79
2021/12/23 06:32:39;;;;;;;46.88;20.17;;;;;;;;;;5084513;28;20099;-80
2021/12/23 06:35:05;;;;;;;46.35;18.95;;;;;;;;;;5072427;28;20084;-80
2021/12/23 06:37:32;;;;;;;44.92;19.05;;;;;;;;;;5085493;28;20060;-80
2021/12/23 06:39:58;;;;;;;46.97;18.40;;;;;;;;;;5097777;28;20053;-80
2021/12/23 06:42:29;;;;;;;49.28;19.60;;;;;;;;;;5087686;28;20052;-80
2021/12/23 06:44:55;;;;;;;47.47;19.13;;;;;;;;;;5086570;28;20096;-80
2021/12/23 06:47:22;;;;;;;48.38;20.50;;;;;;;;;;5076038;28;20067;-80
2021/12/23 06:49:48;;;;;;;52.28;19.95;;;;;;;;;;5074181;28;20107;-80
2021/12/23 06:52:14;;;;;;;48.65;19.30;;;;;;;;;;5078757;28;20088;-81
2021/12/23 06:54:46;;;;;;;48.72;19.77;;;;;;;;;;5070999;28;20119;-80
2021/12/23 06:57:13;;;;;;;50.45;20.85;;;;;;;;;;5079854;28;20084;-80
2021/12/23 06:59:40;;;;;;;52.45;21.10;;;;;;;;;;5086173;28;20048;-80
2021/12/23 07:02:08;;;;;;;45.42;18.88;;;;;;;;;;5097265;28;20083;-79
2021/12/23 07:04:36;;;;;;;53.20;20.15;;;;;;;;;;5073618;28;20053;-79
2021/12/23 07:07:10;;;;;;;45.85;17.83;;;;;;;;;;5074470;28;20135;-79
2021/12/23 07:09:37;;;;;;;50.75;20.67;;;;;;;;;;5076567;28;20053;-79
2021/12/23 07:12:04;;;;;;;49.28;19.98;;;;;;;;;;5089304;28;20514;-79
2021/12/23 07:14:30;;;;;;;50.65;19.50;;;;;;;;;;5068334;28;20052;-79
2021/12/23 07:16:56;;;;;;;46.88;20.52;;;;;;;;;;5072949;28;20088;-79
2021/12/23 07:19:23;;;;;;;51.08;19.67;;;;;;;;;;5081293;28;20525;-78
2021/12/23 07:21:49;;;;;;;52.80;21.02;;;;;;;;;;5076975;28;20053;-79
2021/12/23 07:24:16;;;;;;;47.78;19.20;;;;;;;;;;5080634;28;20081;-79
2021/12/23 07:26:43;;;;;;;50.22;20.13;;;;;;;;;;5074773;28;20069;-79
2021/12/23 07:29:09;;;;;;;53.25;21.00;;;;;;;;;;5073374;28;20142;-79
2021/12/23 07:31:36;;;;;;;48.33;19.90;;;;;;;;;;5077744;28;20522;-79
2021/12/23 07:34:03;;;;;;;46.88;20.02;;;;;;;;;;5069260;28;20059;-79
2021/12/23 07:36:29;;;;;;;50.42;19.80;;;;;;;;;;5069632;28;20515;-79
2021/12/23 07:38:56;;;;;;;54.50;20.50;;;;;;;;;;5077502;28;20093;-79
2021/12/23 07:41:24;;;;;;;55.13;19.85;;;;;;;;;;5072787;28;20103;-79
2021/12/23 07:44:02;;;;;;;57.67;20.80;;;;;;;;;;5076036;28;20069;-79
2021/12/23 07:46:29;;;;;;;44.65;19.48;;;;;;;;;;5078383;28;20339;-79
2021/12/23 07:48:56;;;;;;;48.42;19.90;;;;;;;;;;5073603;28;20061;-79
2021/12/23 07:51:23;;;;;;;51.28;20.75;;;;;;;;;;5081245;28;20056;-79
2021/12/23 07:53:50;;;;;;;49.80;19.38;;;;;;;;;;5072549;28;20053;-79
2021/12/23 07:56:16;;;;;;;51.40;20.33;;;;;;;;;;5072480;28;20053;-78
2021/12/23 07:58:43;;;;;;;49.80;19.10;;;;;;;;;;5079959;28;20052;-78
2021/12/23 08:01:09;;;;;;;50.38;20.33;;;;;;;;;;5080112;28;20107;-79
2021/12/23 08:03:36;;;;;;;53.13;21.02;;;;;;;;;;5082126;28;20049;-78
2021/12/23 08:06:02;;;;;;;48.60;20.20;;;;;;;;;;5093022;28;20060;-78
2021/12/23 08:08:29;;;;;;;49.28;20.83;;;;;;;;;;5087226;28;20052;-79
2021/12/23 08:10:55;;;;;;;49.17;19.88;;;;;;;;;;5082098;28;20079;-78
2021/12/23 08:13:22;;;;;;;49.25;20.25;;;;;;;;;;5080946;28;20057;-79
2021/12/23 08:15:48;;;;;;;59.63;21.13;;;;;;;;;;5083136;28;20579;-78
2021/12/23 08:18:15;;;;;;;57.95;22.42;;;;;;;;;;5083858;28;20059;-78
2021/12/23 08:20:41;;;;;;;48.35;19.77;;;;;;;;;;5081076;28;20060;-78
2021/12/23 08:23:08;;;;;;;46.67;18.98;;;;;;;;;;5078475;28;20041;-78
2021/12/23 08:25:34;;;;;;;50.75;20.35;;;;;;;;;;5076297;28;20094;-79
2021/12/23 08:28:00;;;;;;;52.75;19.10;;;;;;;;;;5084104;28;20049;-79
2021/12/23 08:30:32;;;;;;;49.20;19.90;;;;;;;;;;5079288;28;20060;-79
2021/12/23 08:32:58;;;;;;;55.97;21.02;;;;;;;;;;5080866;28;20136;-79
2021/12/23 08:35:25;;;;;;;49.63;19.88;;;;;;;;;;5073101;28;20115;-79
2021/12/23 08:37:51;;;;;;;47.80;19.63;;;;;;;;;;5067707;28;20146;-77
2021/12/23 08:40:19;;;;;;;45.72;19.65;;;;;;;;;;5085379;28;20076;-77
2021/12/23 08:42:46;;;;;;;58.20;21.88;;;;;;;;;;5080325;28;20413;-77
2021/12/23 08:45:12;;;;;;;49.33;20.38;;;;;;;;;;5076938;27;20136;-78
2021/12/23 08:47:38;;;;;;;49.88;20.48;;;;;;;;;;5072558;28;20139;-77
2021/12/23 08:50:06;;;;;;;48.35;19.55;;;;;;;;;;5075769;28;20084;-77
2021/12/23 08:52:33;;;;;;;45.05;18.02;;;;;;;;;;5068894;28;20060;-77
2021/12/23 08:55:00;;;;;;;45.60;20.08;;;;;;;;;;5067850;28;20049;-77
2021/12/23 08:57:26;;;;;;;48.47;20.35;;;;;;;;;;5068055;28;20546;-77
2021/12/23 08:59:52;;;;;;;46.92;20.42;;;;;;;;;;5067093;28;20565;-77
2021/12/23 09:02:19;;;;;;;52.47;21.63;;;;;;;;;;5066555;28;20049;-77
2021/12/23 09:04:45;;;;;;;52.47;19.83;;;;;;;;;;5069667;28;20503;-77
2021/12/23 09:07:12;;;;;;;48.55;20.65;;;;;;;;;;5069238;28;20053;-77
2021/12/23 09:09:45;;;;;;;47.67;18.40;;;;;;;;;;5069377;28;20638;-77
2021/12/23 09:12:12;;;;;;;42.97;18.02;;;;;;;;;;5109115;27;20107;-77
2021/12/23 09:14:38;;;;;;;46.92;19.33;;;;;;;;;;5108759;28;20052;-77
2021/12/23 09:17:10;;;;;;;48.53;21.17;;;;;;;;;;5088952;28;20056;-77
2021/12/23 09:19:36;;;;;;;44.72;18.55;;;;;;;;;;5069411;28;20061;-77
2021/12/23 09:22:03;;;;;;;43.42;19.48;;;;;;;;;;5068640;28;20079;-77
2021/12/23 09:24:31;;;;;;;43.70;17.75;;;;;;;;;;5067509;28;20414;-77
2021/12/23 09:27:26;;;;;;;47.60;19.30;;;;;;;;;;5071698;28;20088;-77
2021/12/23 09:35:04;;;;;;;46.55;18.15;;;;;;;;;;5070247;28;20422;-77
2021/12/23 09:37:30;;;;;;;50.92;20.65;;;;;;;;;;5067220;28;20049;-77
2021/12/23 09:39:58;;;;;;;45.72;20.25;;;;;;;;;;5068547;28;20128;-77
2021/12/23 09:42:29;;;;;;;64.50;31.00;;;;;;;;;;5073356;28;20057;-77
2021/12/23 09:44:58;;;;;;;46.28;20.70;;;;;;;;;;5066536;28;20065;-77
2021/12/23 09:47:29;;;;;;;48.08;19.30;;;;;;;;;;5067053;28;20369;-77
2021/12/23 09:49:56;;;;;;;44.40;19.10;;;;;;;;;;5074110;28;20057;-76
2021/12/23 09:52:23;;;;;;;51.38;19.77;;;;;;;;;;5068261;28;20203;-77
2021/12/23 09:54:52;;;;;;;47.88;20.70;;;;;;;;;;5067087;28;20148;-77
2021/12/23 09:57:18;;;;;;;49.22;19.85;;;;;;;;;;5067444;28;20052;-77
2021/12/23 09:59:45;;;;;;;46.38;19.25;;;;;;;;;;5067954;28;20053;-77
2021/12/23 10:02:11;;;;;;;50.22;19.83;;;;;;;;;;5066626;28;20045;-76
2021/12/23 10:04:38;;;;;;;50.00;19.60;;;;;;;;;;5066876;28;20127;-77
2021/12/23 10:07:04;;;;;;;49.63;19.55;;;;;;;;;;5094281;28;20052;-76
2021/12/23 10:31:41;;;;;;;45.60;18.20;;;;;;;;;;5075800;28;20099;-76
2021/12/23 10:37:21;;;;;;;51.90;19.95;;;;;;;;;;5068200;28;20061;-77
2021/12/23 10:39:50;;;;;;;50.47;19.45;;;;;;;;;;5066216;28;20064;-77
2021/12/23 10:42:22;;;;;;;47.67;18.98;;;;;;;;;;5085923;28;20058;-77
2021/12/23 10:44:53;;;;;;;47.53;18.65;;;;;;;;;;5087027;28;20125;-77
2021/12/23 10:47:44;;;;;;;46.60;19.02;;;;;;;;;;5076240;28;20575;-77
2021/12/23 10:50:19;;;;;;;46.35;19.30;;;;;;;;;;5066860;28;20087;-77
2021/12/23 10:52:52;;;;;;;47.85;19.65;;;;;;;;;;5076837;28;20553;-77
2021/12/23 11:00:36;;;;;;;48.63;19.27;;;;;;;;;;5069821;28;20103;-77
2021/12/23 11:03:21;;;;;;;51.97;19.45;;;;;;;;;;5073034;28;20131;-77
2021/12/23 11:06:01;;;;;;;47.17;18.15;;;;;;;;;;5068878;28;20064;-77
2021/12/23 11:08:49;;;;;;;47.08;18.27;;;;;;;;;;5066535;28;20053;-77
2021/12/23 11:45:07;;;;;;;44.35;18.40;;;;;;;;;;5064789;28;20056;-77
2021/12/23 11:47:33;;;;;;;42.38;17.83;;;;;;;;;;5080447;28;20059;-77
2021/12/23 11:50:00;;;;;;;43.63;19.05;;;;;;;;;;5073325;28;20130;-77
2021/12/23 11:52:27;;;;;;;49.55;18.38;;;;;;;;;;5074386;28;20786;-80
2021/12/23 11:54:55;;;;;;;46.22;17.80;;;;;;;;;;5074256;28;20092;-77
2021/12/23 11:57:27;;;;;;;45.17;19.17;;;;;;;;;;5075306;28;20462;-77
2021/12/23 12:00:03;;;;;;;41.58;17.50;;;;;;;;;;5084316;28;20137;-77
2021/12/23 12:02:32;;;;;;;44.63;18.33;;;;;;;;;;5079674;28;20136;-77
2021/12/23 12:05:00;;;;;;;43.97;16.90;;;;;;;;;;5079100;28;20060;-78
2021/12/23 12:07:27;;;;;;;45.88;18.13;;;;;;;;;;5079358;28;20156;-77
2021/12/23 12:09:55;;;;;;;43.83;18.77;;;;;;;;;;5073453;28;20119;-77
2021/12/23 12:12:21;;;;;;;42.92;17.48;;;;;;;;;;5081832;28;20057;-77
2021/12/23 12:14:48;;;;;;;44.58;17.75;;;;;;;;;;5069820;28;20061;-77
2021/12/23 12:17:26;;;;;;;46.35;17.60;;;;;;;;;;5069926;28;20053;-77
2021/12/23 12:19:56;;;;;;;44.78;16.95;;;;;;;;;;5080382;28;20053;-77
2021/12/23 12:22:41;;;;;;;42.28;17.90;;;;;;;;;;5086285;28;20060;-77
2021/12/23 12:25:07;;;;;;;40.53;17.75;;;;;;;;;;5076249;28;20053;-78
2021/12/23 12:27:35;;;;;;;45.10;17.95;;;;;;;;;;5080348;28;20151;-77
2021/12/23 12:30:10;;;;;;;47.75;17.20;;;;;;;;;;5078161;28;20053;-77
2021/12/23 12:32:37;;;;;;;42.15;17.90;;;;;;;;;;5087857;28;20569;-77
2021/12/23 12:35:10;;;;;;;40.95;17.13;;;;;;;;;;5088904;28;20102;-77
2021/12/23 12:37:43;;;;;;;39.80;17.33;;;;;;;;;;5089692;28;20111;-77
2021/12/23 12:40:09;;;;;;;43.88;17.30;;;;;;;;;;5081589;28;20072;-77
2021/12/23 12:42:41;;;;;;;42.28;17.00;;;;;;;;;;5076107;28;20048;-77
2021/12/23 12:45:22;;;;;;;38.05;17.08;;;;;;;;;;5091072;28;20053;-77
2021/12/23 12:47:54;;;;;;;44.45;17.38;;;;;;;;;;5080066;28;20519;-77
2021/12/23 12:50:25;;;;;;;38.00;16.52;;;;;;;;;;5077810;28;20082;-77
2021/12/23 12:52:54;;;;;;;;;;;;;;;;;;5074415;28;20053;-77
2021/12/23 12:55:28;;;;;;;39.08;15.23;;;;;;;;;;5069238;28;44033;-77
2021/12/23 12:57:55;;;;;;;43.17;18.45;;;;;;;;;;5069815;28;20091;-77
2021/12/23 13:00:35;;;;;;;41.47;18.63;;;;;;;;;;5070397;28;20053;-77
2021/12/23 13:03:05;;;;;;;54.50;22.23;;;;;;;;;;5080068;28;20200;-77
2021/12/23 13:05:36;;;;;;;44.25;17.23;;;;;;;;;;5091459;28;20758;-79
2021/12/23 13:08:14;;;;;;;45.25;18.75;;;;;;;;;;5081939;28;20040;-78
2021/12/23 13:10:47;;;;;;;42.92;16.48;;;;;;;;;;5078376;28;20063;-78
2021/12/23 13:13:26;;;;;;;44.40;16.65;;;;;;;;;;5070818;28;20052;-78
2021/12/23 13:15:58;;;;;;;42.78;17.15;;;;;;;;;;5073171;28;20096;-78
2021/12/23 13:18:24;;;;;;;44.08;18.67;;;;;;;;;;5071470;28;20577;-77
2021/12/23 13:20:55;;;;;;;46.38;19.08;;;;;;;;;;5087961;28;20053;-77
2021/12/23 13:23:21;;;;;;;;;;;;;;;;;;5085363;28;20107;-78
2021/12/23 13:25:50;;;;;;;39.83;17.30;;;;;;;;;;5070528;28;46590;-78
2021/12/23 13:28:21;;;;;;;41.80;17.50;;;;;;;;;;5073825;28;20085;-78
2021/12/23 13:30:47;;;;;;;47.40;18.25;;;;;;;;;;5087700;28;20079;-78
2021/12/23 13:33:14;;;;;;;46.58;17.88;;;;;;;;;;5089407;28;20087;-78
2021/12/23 13:35:40;;;;;;;45.13;17.95;;;;;;;;;;5106920;28;20933;-78
2021/12/23 13:38:07;;;;;;;46.00;17.63;;;;;;;;;;5097767;28;20549;-78
2021/12/23 13:40:38;;;;;;;44.00;17.73;;;;;;;;;;5069942;28;20052;-78
2021/12/23 13:43:04;;;;;;;41.92;17.33;;;;;;;;;;5068806;28;20057;-78
2021/12/23 13:45:31;;;;;;;39.22;15.48;;;;;;;;;;5070957;28;20052;-78
2021/12/23 13:47:58;;;;;;;43.00;16.77;;;;;;;;;;5074415;28;20571;-78
2021/12/23 13:50:25;;;;;;;47.17;18.50;;;;;;;;;;5071708;28;20049;-78
2021/12/23 13:52:52;;;;;;;45.05;19.23;;;;;;;;;;5079251;28;20138;-78
2021/12/23 13:55:26;;;;;;;43.22;17.98;;;;;;;;;;5073545;28;20519;-78
2021/12/23 13:57:55;;;;;;;38.35;16.83;;;;;;;;;;5071457;28;20053;-78
2021/12/23 14:00:27;;;;;;;43.78;18.73;;;;;;;;;;5070251;28;20053;-78
2021/12/23 14:03:03;;;;;;;41.15;17.50;;;;;;;;;;5083914;28;20067;-78
2021/12/23 14:05:29;;;;;;;45.92;18.45;;;;;;;;;;5074168;28;20053;-78
2021/12/23 14:07:56;;;;;;;43.15;18.85;;;;;;;;;;5068996;28;20103;-78
2021/12/23 14:10:25;;;;;;;44.25;17.77;;;;;;;;;;5071785;28;20052;-78
2021/12/23 14:12:53;;;;;;;48.38;19.17;;;;;;;;;;5076907;28;20052;-78
2021/12/23 14:15:21;;;;;;;40.72;17.55;;;;;;;;;;5072265;28;20057;-78
2021/12/23 14:17:49;;;;;;;45.53;17.83;;;;;;;;;;5072808;28;20513;-78
2021/12/23 14:23:14;;;;;;;41.53;18.70;;;;;;;;;;5071653;28;20088;-78
2021/12/23 14:25:41;;;;;;;46.08;19.73;;;;;;;;;;5083320;28;20048;-78
2021/12/23 14:28:08;;;;;;;44.33;18.52;;;;;;;;;;5076035;28;20061;-78
2021/12/23 14:30:40;;;;;;;44.88;18.73;;;;;;;;;;5069755;28;20092;-78
2021/12/23 14:33:08;;;;;;;46.92;18.75;;;;;;;;;;5071221;28;20071;-78
2021/12/23 14:35:34;;;;;;;46.33;18.95;;;;;;;;;;5071109;28;20118;-79
2021/12/23 14:38:02;;;;;;;41.42;18.92;;;;;;;;;;5077159;28;20041;-78
2021/12/23 14:40:28;;;;;;;45.42;18.92;;;;;;;;;;5077157;28;20087;-78
2021/12/23 14:42:59;;;;;;;46.03;19.77;;;;;;;;;;5089451;28;20222;-78
2021/12/23 14:45:25;;;;;;;45.55;18.90;;;;;;;;;;5075384;28;20118;-78
2021/12/23 14:48:11;;;;;;;45.40;19.70;;;;;;;;;;5070380;28;20056;-78
2021/12/23 14:50:49;;;;;;;44.97;19.58;;;;;;;;;;5070625;28;20060;-78
2021/12/23 14:53:17;;;;;;;42.75;19.02;;;;;;;;;;5074634;28;20142;-78
2021/12/23 14:55:52;;;;;;;43.17;18.35;;;;;;;;;;5079684;28;20593;-78
2021/12/23 14:58:18;;;;;;;46.53;19.13;;;;;;;;;;5070369;28;20053;-78
2021/12/23 15:00:45;;;;;;;45.53;19.48;;;;;;;;;;5085603;28;20044;-79
2021/12/23 15:03:12;;;;;;;49.63;19.45;;;;;;;;;;5075721;28;20516;-79
2021/12/23 15:05:43;;;;;;;46.90;19.27;;;;;;;;;;5075498;28;20072;-79
2021/12/23 15:08:25;;;;;;;40.22;18.70;;;;;;;;;;5067688;28;20049;-78
2021/12/23 15:10:52;;;;;;;45.38;18.05;;;;;;;;;;5079720;28;20067;-78
2021/12/23 15:13:24;;;;;;;47.83;19.73;;;;;;;;;;5087714;28;20110;-79
2021/12/23 15:16:16;;;;;;;47.25;21.02;;;;;;;;;;5082719;28;20049;-79
2021/12/23 15:21:32;;;;;;;52.50;20.73;;;;;;;;;;5070381;28;20048;-79
2021/12/23 15:23:59;;;;;;;50.75;21.38;;;;;;;;;;5070340;28;20107;-79
2021/12/23 15:26:32;;;;;;;44.78;20.80;;;;;;;;;;5081125;28;20063;-79
2021/12/23 15:29:14;;;;;;;47.92;21.80;;;;;;;;;;5076999;28;20121;-79
2021/12/23 15:31:52;;;;;;;51.70;21.63;;;;;;;;;;5082707;28;20084;-79
2021/12/23 15:34:18;;;;;;;46.67;20.10;;;;;;;;;;5075460;28;20479;-79
2021/12/23 15:36:45;;;;;;;49.05;20.63;;;;;;;;;;5072651;28;20054;-80
2021/12/23 15:39:15;;;;;;;48.42;19.45;;;;;;;;;;5088743;28;20271;-79
2021/12/23 15:41:42;;;;;;;55.63;20.88;;;;;;;;;;5080241;28;20143;-78
2021/12/23 15:44:11;;;;;;;45.60;20.65;;;;;;;;;;5069796;28;20458;-79
2021/12/23 15:46:37;;;;;;;44.50;20.40;;;;;;;;;;5075660;28;20066;-79